createdAt,value
2022-08-28T00:00:42.500Z,18.10
2022-08-28T00:03:10.638Z,18.10
2022-08-28T00:05:39.636Z,18.10
2022-08-28T00:08:08.200Z,18.10
2022-08-28T00:10:35.834Z,18.10
2022-08-28T00:13:03.244Z,18.10
2022-08-28T00:15:32.258Z,18.10
2022-08-28T00:17:59.925Z,18.10
2022-08-28T00:20:27.588Z,18.10
2022-08-28T00:22:55.634Z,18.10
2022-08-28T00:25:24.318Z,18.10
2022-08-28T00:27:53.184Z,18.10
2022-08-28T00:30:21.443Z,18.10
2022-08-28T00:32:49.217Z,18.10
2022-08-28T00:35:17.696Z,18.10
2022-08-28T00:37:46.415Z,18.10
2022-08-28T00:40:16.043Z,18.10
2022-08-28T00:42:43.726Z,18.10
2022-08-28T00:45:11.064Z,18.10
2022-08-28T00:47:40.052Z,18.10
2022-08-28T00:50:08.944Z,18.10
2022-08-28T00:52:36.332Z,18.10
2022-08-28T00:55:13.570Z,18.10
2022-08-28T00:57:48.461Z,18.10
2022-08-28T01:00:31.941Z,18.10
2022-08-28T01:02:59.425Z,18.10
2022-08-28T01:05:27.223Z,18.10
2022-08-28T01:07:55.337Z,18.10
2022-08-28T01:10:23.291Z,18.10
2022-08-28T01:12:50.830Z,18.10
2022-08-28T01:15:20.961Z,18.10
2022-08-28T01:17:49.254Z,18.10
2022-08-28T01:20:18.654Z,18.10
2022-08-28T01:23:09.963Z,18.10
2022-08-28T01:25:37.495Z,18.20
2022-08-28T01:28:07.198Z,18.20
2022-08-28T01:30:34.614Z,18.20
2022-08-28T01:33:02.011Z,18.20
2022-08-28T01:35:33.639Z,18.20
2022-08-28T01:38:01.405Z,18.20
2022-08-28T01:40:37.055Z,18.20
2022-08-28T01:43:12.547Z,18.20
2022-08-28T01:45:44.714Z,18.20
2022-08-28T01:48:12.900Z,18.20
2022-08-28T01:50:40.557Z,18.20
2022-08-28T01:53:08.048Z,18.20
2022-08-28T01:55:40.105Z,18.20
2022-08-28T01:58:09.503Z,18.20
2022-08-28T02:00:37.109Z,18.20
2022-08-28T02:03:04.471Z,18.20
2022-08-28T02:05:32.639Z,18.20
2022-08-28T02:08:00.521Z,18.20
2022-08-28T02:10:28.503Z,18.20
2022-08-28T02:12:56.175Z,18.20
2022-08-28T02:15:27.163Z,18.20
2022-08-28T02:17:54.608Z,18.20
2022-08-28T02:20:22.444Z,18.20
2022-08-28T02:22:49.792Z,18.20
2022-08-28T02:25:17.247Z,18.20
2022-08-28T02:27:45.359Z,18.20
2022-08-28T02:30:13.320Z,18.20
2022-08-28T02:32:40.706Z,18.20
2022-08-28T02:35:10.985Z,18.20
2022-08-28T02:37:40.102Z,18.20
2022-08-28T02:40:08.340Z,18.20
2022-08-28T02:42:35.712Z,18.10
2022-08-28T02:45:03.440Z,18.10
2022-08-28T02:47:31.862Z,18.10
2022-08-28T02:49:59.245Z,18.20
2022-08-28T02:52:27.001Z,18.10
2022-08-28T02:54:54.317Z,18.20
2022-08-28T02:57:21.646Z,18.20
2022-08-28T02:59:49.009Z,18.10
2022-08-28T03:02:16.915Z,18.10
2022-08-28T03:04:44.634Z,18.20
2022-08-28T03:07:13.697Z,18.20
2022-08-28T03:09:43.573Z,18.20
2022-08-28T03:12:13.169Z,18.20
2022-08-28T03:14:40.575Z,18.10
2022-08-28T03:17:07.920Z,18.20
2022-08-28T03:19:35.385Z,18.20
2022-08-28T03:22:02.753Z,18.20
2022-08-28T03:24:30.074Z,18.20
2022-08-28T03:26:57.424Z,18.20
2022-08-28T03:29:24.727Z,18.10
2022-08-28T03:31:52.782Z,18.10
2022-08-28T03:34:20.533Z,18.20
2022-08-28T03:36:47.871Z,18.20
2022-08-28T03:39:15.194Z,18.20
2022-08-28T03:41:42.544Z,18.10
2022-08-28T03:44:09.923Z,18.10
2022-08-28T03:46:37.343Z,18.10
2022-08-28T03:49:04.837Z,18.10
2022-08-28T03:51:32.943Z,18.10
2022-08-28T03:54:00.586Z,18.10
2022-08-28T03:56:28.727Z,18.20
2022-08-28T03:58:58.493Z,18.10
2022-08-28T04:01:26.052Z,18.10
2022-08-28T04:03:53.467Z,18.20
2022-08-28T04:06:20.829Z,18.20
2022-08-28T04:08:48.337Z,18.10
2022-08-28T04:11:15.875Z,18.20
2022-08-28T04:13:43.314Z,18.10
2022-08-28T04:16:13.054Z,18.10
2022-08-28T04:18:41.982Z,18.20
2022-08-28T04:21:11.922Z,18.10
2022-08-28T04:23:39.963Z,18.20
2022-08-28T04:26:07.778Z,18.20
2022-08-28T04:28:35.339Z,18.20
2022-08-28T04:31:02.890Z,18.20
2022-08-28T04:33:30.359Z,18.20
2022-08-28T04:35:57.742Z,18.20
2022-08-28T04:38:25.063Z,18.20
2022-08-28T04:40:52.523Z,18.20
2022-08-28T04:43:19.835Z,18.20
2022-08-28T04:45:47.282Z,18.20
2022-08-28T04:48:14.768Z,18.20
2022-08-28T04:50:47.245Z,18.10
2022-08-28T04:53:15.223Z,18.10
2022-08-28T04:55:54.465Z,18.10
2022-08-28T04:58:23.754Z,18.20
2022-08-28T05:00:52.187Z,18.20
2022-08-28T05:03:19.639Z,18.20
2022-08-28T05:05:49.102Z,18.20
2022-08-28T05:08:18.029Z,18.20
2022-08-28T05:10:47.011Z,18.20
2022-08-28T05:13:18.280Z,18.20
2022-08-28T05:15:47.519Z,18.20
2022-08-28T05:18:15.577Z,18.20
2022-08-28T05:20:44.655Z,18.20
2022-08-28T05:23:12.353Z,18.20
2022-08-28T05:25:42.766Z,18.20
2022-08-28T05:28:12.034Z,18.20
2022-08-28T05:30:40.257Z,18.20
2022-08-28T05:33:08.230Z,18.20
2022-08-28T05:35:40.249Z,18.20
2022-08-28T05:38:07.763Z,18.20
2022-08-28T05:40:40.039Z,18.20
2022-08-28T05:43:07.412Z,18.20
2022-08-28T05:45:34.756Z,18.20
2022-08-28T05:48:02.260Z,18.20
2022-08-28T05:50:31.314Z,18.20
2022-08-28T05:52:59.255Z,18.20
2022-08-28T05:55:26.636Z,18.20
2022-08-28T05:57:53.976Z,18.20
2022-08-28T06:00:21.578Z,18.20
2022-08-28T06:02:48.906Z,18.30
2022-08-28T06:05:17.930Z,18.30
2022-08-28T06:07:45.338Z,18.30
2022-08-28T06:10:12.693Z,18.30
2022-08-28T06:12:40.331Z,18.30
2022-08-28T06:15:08.245Z,18.30
2022-08-28T06:17:35.556Z,18.30
2022-08-28T06:20:04.371Z,18.30
2022-08-28T06:22:31.678Z,18.30
2022-08-28T06:24:59.077Z,18.40
2022-08-28T06:27:26.439Z,18.40
2022-08-28T06:29:53.781Z,18.40
2022-08-28T06:32:21.146Z,18.40
2022-08-28T06:34:48.579Z,18.50
2022-08-28T06:37:15.924Z,18.50
2022-08-28T06:39:43.241Z,18.50
2022-08-28T06:42:10.593Z,18.60
2022-08-28T06:44:39.228Z,18.50
2022-08-28T06:47:06.647Z,18.60
2022-08-28T06:49:34.226Z,18.50
2022-08-28T06:52:02.303Z,18.50
2022-08-28T06:54:31.024Z,18.50
2022-08-28T06:56:58.423Z,18.50
2022-08-28T06:59:26.807Z,18.50
2022-08-28T07:01:54.429Z,18.60
2022-08-28T07:04:21.944Z,18.60
2022-08-28T07:06:54.114Z,18.60
2022-08-28T07:09:22.543Z,18.60
2022-08-28T07:11:50.040Z,18.60
2022-08-28T07:14:17.380Z,18.60
2022-08-28T07:16:44.950Z,18.60
2022-08-28T07:19:12.520Z,18.60
2022-08-28T07:21:42.154Z,18.70
2022-08-28T07:24:10.628Z,18.70
2022-08-28T07:26:40.826Z,18.70
2022-08-28T07:29:10.016Z,18.70
2022-08-28T07:31:46.887Z,18.70
2022-08-28T07:34:15.937Z,18.70
2022-08-28T07:36:43.415Z,18.70
2022-08-28T07:39:11.561Z,18.70
2022-08-28T07:41:40.303Z,18.70
2022-08-28T07:44:26.466Z,18.70
2022-08-28T07:46:58.005Z,18.70
2022-08-28T07:49:25.599Z,18.70
2022-08-28T07:51:53.877Z,18.70
2022-08-28T07:54:22.716Z,18.80
2022-08-28T07:56:50.281Z,18.80
2022-08-28T07:59:19.217Z,18.70
2022-08-28T08:01:48.244Z,18.70
2022-08-28T08:04:16.286Z,18.60
2022-08-28T08:06:43.879Z,18.50
2022-08-28T08:09:13.220Z,18.40
2022-08-28T08:11:40.617Z,18.40
2022-08-28T08:14:08.436Z,18.40
2022-08-28T08:16:38.713Z,18.40
2022-08-28T08:19:06.474Z,18.40
2022-08-28T08:21:33.827Z,18.40
2022-08-28T08:24:01.206Z,18.40
2022-08-28T08:26:28.612Z,18.40
2022-08-28T08:28:56.186Z,18.40
2022-08-28T08:31:26.646Z,18.40
2022-08-28T08:33:56.140Z,18.40
2022-08-28T08:36:25.015Z,18.40
2022-08-28T08:38:59.989Z,18.40
2022-08-28T08:41:51.181Z,18.40
2022-08-28T08:44:23.705Z,18.40
2022-08-28T08:47:16.254Z,18.40
2022-08-28T08:50:07.143Z,18.40
2022-08-28T08:52:40.364Z,18.40
2022-08-28T08:55:23.885Z,18.40
2022-08-28T08:58:04.544Z,18.40
2022-08-28T09:00:33.415Z,18.40
2022-08-28T09:03:15.349Z,18.40
2022-08-28T09:06:12.529Z,18.40
2022-08-28T09:08:44.433Z,18.40
2022-08-28T09:12:03.599Z,18.40
2022-08-28T09:14:38.493Z,18.50
2022-08-28T09:17:06.143Z,18.40
2022-08-28T09:19:33.684Z,18.50
2022-08-28T09:22:01.422Z,18.50
2022-08-28T09:24:33.519Z,18.40
2022-08-28T09:27:24.919Z,18.40
2022-08-28T09:30:02.530Z,18.50
2022-08-28T09:32:43.762Z,18.50
2022-08-28T09:35:25.238Z,18.50
2022-08-28T09:37:52.702Z,18.50
2022-08-28T09:40:22.459Z,18.50
2022-08-28T09:43:23.566Z,18.50
2022-08-28T09:46:09.936Z,18.50
2022-08-28T09:48:43.346Z,18.60
2022-08-28T09:51:22.927Z,18.60
2022-08-28T09:53:56.446Z,18.60
2022-08-28T09:56:33.494Z,18.60
2022-08-28T09:59:14.213Z,18.50
2022-08-28T10:01:45.110Z,18.50
2022-08-28T10:04:34.572Z,18.50
2022-08-28T10:07:15.250Z,18.50
2022-08-28T10:09:51.790Z,18.50
2022-08-28T10:12:50.367Z,18.50
2022-08-28T10:16:13.863Z,18.50
2022-08-28T10:18:53.088Z,18.50
2022-08-28T10:21:29.312Z,18.50
2022-08-28T10:24:09.475Z,18.60
2022-08-28T10:26:42.902Z,18.60
2022-08-28T10:29:31.331Z,18.60
2022-08-28T10:32:21.907Z,18.60
2022-08-28T10:35:08.140Z,18.60
2022-08-28T10:37:57.166Z,18.60
2022-08-28T10:40:52.090Z,18.60
2022-08-28T10:43:45.783Z,18.70
2022-08-28T10:46:27.881Z,18.70
2022-08-28T10:49:00.446Z,18.70
2022-08-28T10:51:44.600Z,18.80
2022-08-28T10:54:23.483Z,18.80
2022-08-28T10:57:00.095Z,18.80
2022-08-28T10:59:27.744Z,18.80
2022-08-28T11:01:55.136Z,18.80
2022-08-28T11:04:25.649Z,18.80
2022-08-28T11:06:58.518Z,18.80
2022-08-28T11:09:35.336Z,18.90
2022-08-28T11:12:10.089Z,18.90
2022-08-28T11:14:47.586Z,18.90
2022-08-28T11:17:22.053Z,19.00
2022-08-28T11:20:10.614Z,19.10
2022-08-28T11:22:39.485Z,19.10
2022-08-28T11:25:26.666Z,19.20
2022-08-28T11:28:25.540Z,19.20
2022-08-28T11:30:59.193Z,19.30
2022-08-28T11:33:47.695Z,19.30
2022-08-28T11:36:25.395Z,19.30
2022-08-28T11:38:53.226Z,19.30
2022-08-28T11:41:24.429Z,19.30
2022-08-28T11:44:13.918Z,19.40
2022-08-28T11:46:49.148Z,19.40
2022-08-28T11:49:34.768Z,19.40
2022-08-28T11:52:31.439Z,19.40
2022-08-28T11:55:02.023Z,19.40
2022-08-28T11:57:50.632Z,19.40
2022-08-28T12:00:39.967Z,19.40
2022-08-28T12:03:07.338Z,19.40
2022-08-28T12:05:36.101Z,19.50
2022-08-28T12:08:03.969Z,19.50
2022-08-28T12:10:32.406Z,19.50
2022-08-28T12:13:04.017Z,19.50
2022-08-28T12:15:31.376Z,19.50
2022-08-28T12:18:00.014Z,19.50
2022-08-28T12:20:51.018Z,19.60
2022-08-28T12:23:37.836Z,19.60
2022-08-28T12:26:26.530Z,19.60
2022-08-28T12:28:56.955Z,19.70
2022-08-28T12:31:55.039Z,19.70
2022-08-28T12:34:28.846Z,19.80
2022-08-28T12:37:00.211Z,19.90
2022-08-28T12:39:27.747Z,19.90
2022-08-28T12:41:55.131Z,19.90
2022-08-28T12:44:24.253Z,19.90
2022-08-28T12:46:51.675Z,20.00
2022-08-28T12:49:37.783Z,20.10
2022-08-28T12:52:18.260Z,20.20
2022-08-28T12:54:46.213Z,20.20
2022-08-28T12:57:18.013Z,20.30
2022-08-28T12:59:52.942Z,20.40
2022-08-28T13:02:28.375Z,20.40
2022-08-28T13:05:00.061Z,20.40
2022-08-28T13:07:40.555Z,20.50
2022-08-28T13:10:29.675Z,20.50
2022-08-28T13:13:27.878Z,20.50
2022-08-28T13:15:58.491Z,20.50
2022-08-28T13:18:49.743Z,20.40
2022-08-28T13:21:30.843Z,20.40
2022-08-28T13:24:26.108Z,20.40
2022-08-28T13:27:06.858Z,20.40
2022-08-28T13:29:34.381Z,20.30
2022-08-28T13:32:08.524Z,20.30
2022-08-28T13:34:37.333Z,20.30
2022-08-28T13:37:08.816Z,20.30
2022-08-28T13:39:47.723Z,20.30
2022-08-28T13:42:15.925Z,20.30
2022-08-28T13:44:49.102Z,20.30
2022-08-28T13:47:16.760Z,20.40
2022-08-28T13:49:44.148Z,20.40
2022-08-28T13:52:11.942Z,20.40
2022-08-28T13:54:43.817Z,20.40
2022-08-28T13:57:16.119Z,20.40
2022-08-28T13:59:43.637Z,20.60
2022-08-28T14:02:31.117Z,20.70
2022-08-28T14:04:58.628Z,20.70
2022-08-28T14:07:25.969Z,20.90
2022-08-28T14:09:56.411Z,21.10
2022-08-28T14:12:31.410Z,21.30
2022-08-28T14:15:01.788Z,21.30
2022-08-28T14:17:29.268Z,21.40
2022-08-28T14:19:56.798Z,21.40
2022-08-28T14:22:24.177Z,21.40
2022-08-28T14:24:52.196Z,21.30
2022-08-28T14:27:19.611Z,21.30
2022-08-28T14:29:47.042Z,21.30
2022-08-28T14:32:14.477Z,21.30
2022-08-28T14:34:41.991Z,21.30
2022-08-28T14:37:09.363Z,21.30
2022-08-28T14:39:36.746Z,21.30
2022-08-28T14:42:06.457Z,21.40
2022-08-28T14:44:40.484Z,21.40
2022-08-28T14:47:07.713Z,21.40
2022-08-28T14:49:35.127Z,21.40
2022-08-28T14:52:02.597Z,21.40
2022-08-28T14:54:29.957Z,21.40
2022-08-28T14:56:57.451Z,21.40
2022-08-28T14:59:26.695Z,21.40
2022-08-28T15:01:55.576Z,21.30
2022-08-28T15:04:23.640Z,21.30
2022-08-28T15:06:54.908Z,21.20
2022-08-28T15:09:22.260Z,21.20
2022-08-28T15:11:49.643Z,21.00
2022-08-28T15:14:17.074Z,21.00
2022-08-28T15:16:45.671Z,20.90
2022-08-28T15:19:15.893Z,20.80
2022-08-28T15:21:45.664Z,20.80
2022-08-28T15:24:13.870Z,20.80
2022-08-28T15:26:41.275Z,20.70
2022-08-28T15:29:08.982Z,20.70
2022-08-28T15:31:38.674Z,20.70
2022-08-28T15:34:09.873Z,20.70
2022-08-28T15:36:42.031Z,20.70
2022-08-28T15:39:28.557Z,20.80
2022-08-28T15:41:56.383Z,20.80
2022-08-28T15:44:24.151Z,20.90
2022-08-28T15:46:56.412Z,20.90
2022-08-28T15:49:24.439Z,20.90
2022-08-28T15:51:52.589Z,20.90
2022-08-28T15:54:22.116Z,20.90
2022-08-28T15:56:52.729Z,20.90
2022-08-28T15:59:21.555Z,20.90
2022-08-28T16:01:51.269Z,21.00
2022-08-28T16:04:18.814Z,21.00
2022-08-28T16:06:46.489Z,21.00
2022-08-28T16:09:13.995Z,21.00
2022-08-28T16:11:43.817Z,21.00
2022-08-28T16:14:11.999Z,21.10
2022-08-28T16:16:39.615Z,21.10
2022-08-28T16:19:14.127Z,21.10
2022-08-28T16:21:42.284Z,21.10
2022-08-28T16:24:09.979Z,21.10
2022-08-28T16:26:37.978Z,21.00
2022-08-28T16:29:06.000Z,21.00
2022-08-28T16:31:34.560Z,21.00
2022-08-28T16:34:03.023Z,21.00
2022-08-28T16:36:30.877Z,21.00
2022-08-28T16:39:03.661Z,21.00
2022-08-28T16:41:31.939Z,21.00
2022-08-28T16:43:59.453Z,21.00
2022-08-28T16:46:27.912Z,20.90
2022-08-28T16:48:55.462Z,21.00
2022-08-28T16:51:26.782Z,21.00
2022-08-28T16:53:54.848Z,21.00
2022-08-28T16:56:23.765Z,20.90
2022-08-28T16:58:53.268Z,20.90
2022-08-28T17:01:23.972Z,20.90
2022-08-28T17:03:52.942Z,20.90
2022-08-28T17:06:26.491Z,20.90
2022-08-28T17:08:56.954Z,20.80
2022-08-28T17:11:26.029Z,20.80
2022-08-28T17:13:53.843Z,20.80
2022-08-28T17:16:21.591Z,20.80
2022-08-28T17:18:52.564Z,20.70
2022-08-28T17:21:40.157Z,20.70
2022-08-28T17:24:08.729Z,20.70
2022-08-28T17:26:36.087Z,20.60
2022-08-28T17:29:03.995Z,20.60
2022-08-28T17:31:31.521Z,20.60
2022-08-28T17:33:58.966Z,20.50
2022-08-28T17:36:33.421Z,20.50
2022-08-28T17:39:03.065Z,20.50
2022-08-28T17:41:30.475Z,20.40
2022-08-28T17:43:58.264Z,20.50
2022-08-28T17:46:26.576Z,20.40
2022-08-28T17:48:55.856Z,20.40
2022-08-28T17:51:40.438Z,20.40
2022-08-28T17:54:18.239Z,20.40
2022-08-28T17:56:46.306Z,20.40
2022-08-28T17:59:13.987Z,20.30
2022-08-28T18:01:42.312Z,20.30
2022-08-28T18:04:10.384Z,20.30
2022-08-28T18:06:37.907Z,20.30
2022-08-28T18:09:05.945Z,20.20
2022-08-28T18:11:33.448Z,20.20
2022-08-28T18:14:01.089Z,20.20
2022-08-28T18:16:31.329Z,20.10
2022-08-28T18:19:00.113Z,20.10
2022-08-28T18:21:27.655Z,20.00
2022-08-28T18:23:55.057Z,20.00
2022-08-28T18:26:22.391Z,20.00
2022-08-28T18:28:49.911Z,19.90
2022-08-28T18:31:17.696Z,19.90
2022-08-28T18:33:45.128Z,19.90
2022-08-28T18:36:13.514Z,19.80
2022-08-28T18:38:41.265Z,19.80
2022-08-28T18:41:08.861Z,19.80
2022-08-28T18:43:36.602Z,19.80
2022-08-28T18:46:04.510Z,19.80
2022-08-28T18:48:32.030Z,19.70
2022-08-28T18:50:59.581Z,19.70
2022-08-28T18:53:27.958Z,19.70
2022-08-28T18:55:56.382Z,19.70
2022-08-28T18:58:27.880Z,19.70
2022-08-28T19:00:55.469Z,19.70
2022-08-28T19:03:22.837Z,19.70
2022-08-28T19:05:51.079Z,19.70
2022-08-28T19:08:18.628Z,19.70
2022-08-28T19:10:46.639Z,19.70
2022-08-28T19:13:14.051Z,19.80
2022-08-28T19:15:41.604Z,19.80
2022-08-28T19:18:09.051Z,19.80
2022-08-28T19:20:36.458Z,19.80
2022-08-28T19:23:03.817Z,19.80
2022-08-28T19:25:31.261Z,19.70
2022-08-28T19:27:59.706Z,19.70
2022-08-28T19:30:28.689Z,19.70
2022-08-28T19:32:56.115Z,19.70
2022-08-28T19:35:24.525Z,19.70
2022-08-28T19:37:52.839Z,19.70
2022-08-28T19:40:20.743Z,19.70
2022-08-28T19:42:49.846Z,19.70
2022-08-28T19:45:17.872Z,19.70
2022-08-28T19:47:45.559Z,19.60
2022-08-28T19:50:13.930Z,19.60
2022-08-28T19:52:41.453Z,19.50
2022-08-28T19:55:08.990Z,19.50
2022-08-28T19:57:36.636Z,19.40
2022-08-28T20:00:04.824Z,19.40
2022-08-28T20:02:32.195Z,19.30
2022-08-28T20:04:59.619Z,19.30
2022-08-28T20:07:26.983Z,19.30
2022-08-28T20:09:54.318Z,19.20
2022-08-28T20:12:21.704Z,19.20
2022-08-28T20:14:49.340Z,19.20
2022-08-28T20:17:18.634Z,19.20
2022-08-28T20:19:47.631Z,19.10
2022-08-28T20:22:15.279Z,19.10
2022-08-28T20:24:42.818Z,19.10
2022-08-28T20:27:10.194Z,19.10
2022-08-28T20:29:37.554Z,19.00
2022-08-28T20:32:05.017Z,19.00
2022-08-28T20:34:32.397Z,19.00
2022-08-28T20:36:59.747Z,18.90
2022-08-28T20:39:28.189Z,18.90
2022-08-28T20:41:55.523Z,18.90
2022-08-28T20:44:22.905Z,18.90
2022-08-28T20:46:51.537Z,18.90
2022-08-28T20:49:24.386Z,18.80
2022-08-28T20:51:58.835Z,18.80
2022-08-28T20:54:33.156Z,18.80
2022-08-28T20:57:03.478Z,18.80
2022-08-28T20:59:35.434Z,18.70
2022-08-28T21:02:11.137Z,18.70
2022-08-28T21:04:39.017Z,18.70
2022-08-28T21:07:06.511Z,18.60
2022-08-28T21:10:01.424Z,18.60
2022-08-28T21:12:21.524Z,18.60
2022-08-28T21:14:52.315Z,18.60
2022-08-28T21:17:28.846Z,18.50
2022-08-28T21:19:57.097Z,18.60
2022-08-28T21:22:24.441Z,18.50
2022-08-28T21:24:51.803Z,18.50
2022-08-28T21:27:19.153Z,18.40
2022-08-28T21:29:46.505Z,18.40
2022-08-28T21:32:13.840Z,18.40
2022-08-28T21:34:41.218Z,18.40
2022-08-28T21:37:08.572Z,18.40
2022-08-28T21:39:35.931Z,18.30
2022-08-28T21:42:03.388Z,18.40
2022-08-28T21:44:30.735Z,18.30
2022-08-28T21:46:59.523Z,18.30
2022-08-28T21:49:26.883Z,18.30
2022-08-28T21:51:54.769Z,18.30
2022-08-28T21:54:23.053Z,18.30
2022-08-28T21:56:50.608Z,18.20
2022-08-28T21:59:30.270Z,18.20
2022-08-28T22:02:05.348Z,18.20
2022-08-28T22:04:32.854Z,18.20
2022-08-28T22:07:00.192Z,18.20
2022-08-28T22:09:27.665Z,18.20
2022-08-28T22:11:54.985Z,18.20
2022-08-28T22:14:25.151Z,18.20
2022-08-28T22:16:52.601Z,18.20
2022-08-28T22:19:19.973Z,18.20
2022-08-28T22:22:05.724Z,18.10
2022-08-28T22:24:33.338Z,18.10
2022-08-28T22:27:00.672Z,18.10
2022-08-28T22:29:30.012Z,18.10
2022-08-28T22:31:57.390Z,18.10
2022-08-28T22:34:24.775Z,18.00
2022-08-28T22:36:52.102Z,18.00
2022-08-28T22:39:19.441Z,18.00
2022-08-28T22:41:46.779Z,18.10
2022-08-28T22:44:14.136Z,18.00
2022-08-28T22:46:42.050Z,18.00
2022-08-28T22:49:09.382Z,18.00
2022-08-28T22:51:36.698Z,18.00
2022-08-28T22:54:04.369Z,18.00
2022-08-28T22:56:31.691Z,18.00
2022-08-28T22:58:59.381Z,17.90
2022-08-28T23:01:26.913Z,18.00
2022-08-28T23:03:54.378Z,17.90
2022-08-28T23:06:21.765Z,18.00
2022-08-28T23:08:49.278Z,18.00
2022-08-28T23:11:16.983Z,17.90
2022-08-28T23:13:44.356Z,17.90
2022-08-28T23:16:11.777Z,17.90
2022-08-28T23:19:04.300Z,17.90
2022-08-28T23:21:28.409Z,17.90
2022-08-28T23:23:56.167Z,17.90
2022-08-28T23:26:24.076Z,17.90
2022-08-28T23:28:51.742Z,17.90
2022-08-28T23:31:19.281Z,17.80
2022-08-28T23:33:46.837Z,17.80
2022-08-28T23:36:15.252Z,17.80
2022-08-28T23:38:44.792Z,17.80
2022-08-28T23:41:12.504Z,17.80
2022-08-28T23:43:40.862Z,17.80
2022-08-28T23:46:09.597Z,17.80
2022-08-28T23:48:41.071Z,17.80
2022-08-28T23:51:09.807Z,17.70
2022-08-28T23:53:39.407Z,17.80
2022-08-28T23:56:07.074Z,17.70
2022-08-28T23:58:35.406Z,17.70
